Aérodrome :







RETROUVEZ-NOUS SUR...

 
LOGIN :

S'inscrire | Disclaimer

   EN    FR    IT 

 









Légende :    VFR   VFR Marginal   IFR   IFR Intensif   IFR Très Intensif
Visi : 
Plafond : 
>= 8 km
>= 3000ft
5 à 8 km
1000 à 3000 ft
1500m à 5 km
500 à 1000 ft
800 à 1500m
200 à 500 ft
< 800m
< 200 ft
Symboles :   Orages  Brouillard  Fortes neiges  Fortes précipitations  Vent > 20 kt






- Altitude de l'aérodrome : 352 ft


KAUG - Augusta State

DERNIER METAR :
  • 121019Z AUTO 02010KT 2 1/2SM BR OVC004 M04/M04 A2978 RMK AO2 I1001 T10391044 $

METARs EXPIRÉS :
  • 120953Z AUTO 36011KT 3SM BR OVC004 M04/M04 A2978 RMK AO2 SLP090 I1001 T10391044 $
  • 120934Z AUTO 01011KT 4SM BR OVC004 M04/M04 A2979 RMK AO2 I1001 T10391044 $
  • 120853Z AUTO 01012KT 5SM BR OVC005 M04/M04 A2981 RMK AO2 UPE0759FZRAB0759E23 SLP101 P0000 60001 I1002 I3008 T10391044 56059 $
  • 120829Z AUTO 02014KT 5SM BR OVC006 M03/M04 A2983 RMK AO2 UPE0759FZRAB0759E23 P0000 I1002 T10331044 $
  • 120759Z AUTO 01013KT 3SM -FZRA BR OVC005 M03/M04 A2987 RMK AO2 UPE59FZRAB59 P0000 I1001 T10331039 $
  • 120753Z AUTO 36011KT 2 1/2SM UP BR OVC005 M03/M04 A2988 RMK AO2 UPB49FZRAE00B27E39SNB39E49 CIG 004V008 SLP122 P0001 I1002 T10331039 $

TAF KAUG
Valide du 12 à 09h jusqu'au 13 à 06h UTC


120914Z 1209/1306 03009KT 3SM BR OVC005
FM121200 31004KT 5SM -FZDZ OVC012
FM121800 30007KT P6SM -SN OVC030
FM130000 31009G20KT P6SM SKC



MET'MAP, la Météo Aéronautique d'un coup d'oeil ! - Copyright ORBIFLY Décembre 2007 - Disclaimer

ORBIFLY MET'MAP TEAM :

Programmation & Développement : Alexandra Zaïnal
Conception & Développement : Baudouin d'Aumeries
Co-Programmation & Développement : Marc-Olivier Méhu
Soutien technique & logistique : Manuel Goepfert

Contact : metmap@orbifly.com




SOURCES & CREDITS :

   NOAA